createdAt,value
2022-12-18T00:01:34.101Z,102756.00
2022-12-18T00:04:04.878Z,102764.00
2022-12-18T00:06:33.631Z,102770.00
2022-12-18T00:09:02.042Z,102782.00
2022-12-18T00:11:31.535Z,102773.00
2022-12-18T00:14:00.835Z,102777.00
2022-12-18T00:16:30.974Z,102771.00
2022-12-18T00:19:01.437Z,102767.00
2022-12-18T00:21:30.746Z,102759.00
2022-12-18T00:23:58.727Z,102761.00
2022-12-18T00:26:31.893Z,102770.00
2022-12-18T00:29:09.392Z,102763.00
2022-12-18T00:31:37.728Z,102760.00
2022-12-18T00:34:05.349Z,102776.00
2022-12-18T00:36:35.315Z,102770.00
2022-12-18T00:39:05.111Z,102771.00
2022-12-18T00:41:51.041Z,102775.00
2022-12-18T00:44:19.260Z,102773.00
2022-12-18T00:46:48.608Z,102771.00
2022-12-18T00:49:19.125Z,102754.00
2022-12-18T00:51:46.665Z,102759.00
2022-12-18T00:54:14.206Z,102770.00
2022-12-18T00:56:48.455Z,102771.00
2022-12-18T00:59:16.519Z,102756.00
2022-12-18T01:01:43.623Z,102755.00
2022-12-18T01:04:10.692Z,102755.00
2022-12-18T01:06:37.624Z,102756.00
2022-12-18T01:09:04.566Z,102759.00
2022-12-18T01:11:33.415Z,102760.00
2022-12-18T01:14:00.114Z,102772.00
2022-12-18T01:16:26.960Z,102767.00
2022-12-18T01:18:55.507Z,102770.00
2022-12-18T01:21:24.057Z,102778.00
2022-12-18T01:23:57.475Z,102781.00
2022-12-18T01:26:26.420Z,102792.00
2022-12-18T01:28:55.204Z,102797.00
2022-12-18T01:31:29.114Z,102799.00
2022-12-18T01:33:56.781Z,102802.00
2022-12-18T01:36:35.639Z,102792.00
2022-12-18T01:39:10.475Z,102796.00
2022-12-18T01:41:56.224Z,102796.00
2022-12-18T01:45:06.450Z,102797.00
2022-12-18T01:47:46.262Z,102801.00
2022-12-18T01:50:18.496Z,102795.00
2022-12-18T01:52:52.484Z,102787.00
2022-12-18T01:55:24.428Z,102796.00
2022-12-18T01:57:55.971Z,102797.00
2022-12-18T02:00:24.468Z,102797.00
2022-12-18T02:02:52.017Z,102808.00
2022-12-18T02:05:36.880Z,102796.00
2022-12-18T02:08:22.871Z,102807.00
2022-12-18T02:11:05.315Z,102818.00
2022-12-18T02:13:58.202Z,102807.00
2022-12-18T02:16:58.814Z,102807.00
2022-12-18T02:20:20.034Z,102809.00
2022-12-18T02:23:33.469Z,102808.00
2022-12-18T02:26:22.999Z,102805.00
2022-12-18T02:29:02.621Z,102800.00
2022-12-18T02:31:40.801Z,102813.00
2022-12-18T02:34:11.146Z,102817.00
2022-12-18T02:36:42.695Z,102824.00
2022-12-18T02:39:13.548Z,102820.00
2022-12-18T02:41:41.200Z,102820.00
2022-12-18T02:44:13.528Z,102826.00
2022-12-18T02:46:49.810Z,102828.00
2022-12-18T02:49:58.887Z,102831.00
2022-12-18T02:53:01.245Z,102834.00
2022-12-18T02:55:52.696Z,102843.00
2022-12-18T02:59:01.293Z,102833.00
2022-12-18T03:01:47.756Z,102828.00
2022-12-18T03:04:40.215Z,102826.00
2022-12-18T03:07:19.761Z,102833.00
2022-12-18T03:09:51.924Z,102828.00
2022-12-18T03:12:31.044Z,102833.00
2022-12-18T03:15:17.424Z,102828.00
2022-12-18T03:17:53.988Z,102835.00
2022-12-18T03:20:26.017Z,102825.00
2022-12-18T03:23:00.905Z,102835.00
2022-12-18T03:25:29.166Z,102826.00
2022-12-18T03:28:01.313Z,102832.00
2022-12-18T03:30:31.432Z,102839.00
2022-12-18T03:33:14.386Z,102846.00
2022-12-18T03:35:43.901Z,102852.00
2022-12-18T03:38:11.796Z,102846.00
2022-12-18T03:41:03.851Z,102831.00
2022-12-18T03:43:40.176Z,102834.00
2022-12-18T03:46:38.709Z,102823.00
2022-12-18T03:49:24.393Z,102838.00
2022-12-18T03:52:04.425Z,102836.00
2022-12-18T03:54:33.902Z,102841.00
2022-12-18T03:57:18.960Z,102851.00
2022-12-18T03:59:50.411Z,102846.00
2022-12-18T04:02:18.885Z,102846.00
2022-12-18T04:04:48.183Z,102850.00
2022-12-18T04:07:17.011Z,102835.00
2022-12-18T04:09:46.909Z,102833.00
2022-12-18T04:12:13.624Z,102835.00
2022-12-18T04:14:40.645Z,102837.00
2022-12-18T04:17:07.536Z,102847.00
2022-12-18T04:19:34.296Z,102846.00
2022-12-18T04:22:01.056Z,102854.00
2022-12-18T04:24:27.886Z,102853.00
2022-12-18T04:26:54.828Z,102860.00
2022-12-18T04:29:21.522Z,102856.00
2022-12-18T04:31:48.251Z,102862.00
2022-12-18T04:34:15.715Z,102853.00
2022-12-18T04:36:42.493Z,102852.00
2022-12-18T04:39:09.298Z,102853.00
2022-12-18T04:41:36.263Z,102862.00
2022-12-18T04:44:02.987Z,102869.00
2022-12-18T04:46:29.860Z,102874.00
2022-12-18T04:48:56.667Z,102860.00
2022-12-18T04:51:26.644Z,102859.00
2022-12-18T04:53:54.651Z,102850.00
2022-12-18T04:56:21.790Z,102853.00
2022-12-18T04:58:48.492Z,102863.00
2022-12-18T05:01:18.142Z,102860.00
2022-12-18T05:03:45.541Z,102858.00
2022-12-18T05:06:12.455Z,102869.00
2022-12-18T05:08:39.251Z,102862.00
2022-12-18T05:11:11.121Z,102879.00
2022-12-18T05:13:39.550Z,102878.00
2022-12-18T05:16:07.881Z,102872.00
2022-12-18T05:18:35.515Z,102868.00
2022-12-18T05:21:02.960Z,102885.00
2022-12-18T05:23:30.479Z,102887.00
2022-12-18T05:26:02.595Z,102888.00
2022-12-18T05:28:31.699Z,102902.00
2022-12-18T05:31:01.424Z,102905.00
2022-12-18T05:33:32.423Z,102906.00
2022-12-18T05:36:02.002Z,102914.00
2022-12-18T05:38:30.744Z,102914.00
2022-12-18T05:40:58.835Z,102906.00
2022-12-18T05:43:28.769Z,102914.00
2022-12-18T05:45:56.692Z,102913.00
2022-12-18T05:48:23.904Z,102910.00
2022-12-18T05:50:51.887Z,102907.00
2022-12-18T05:53:21.434Z,102909.00
2022-12-18T05:55:49.278Z,102914.00
2022-12-18T05:58:16.757Z,102913.00
2022-12-18T06:00:46.830Z,102905.00
2022-12-18T06:03:14.906Z,102910.00
2022-12-18T06:05:46.002Z,102920.00
2022-12-18T06:08:14.247Z,102922.00
2022-12-18T06:10:42.415Z,102928.00
2022-12-18T06:13:09.566Z,102934.00
2022-12-18T06:15:39.353Z,102930.00
2022-12-18T06:18:06.100Z,102926.00
2022-12-18T06:20:33.922Z,102928.00
2022-12-18T06:23:01.086Z,102938.00
2022-12-18T06:25:27.798Z,102935.00
2022-12-18T06:27:54.524Z,102935.00
2022-12-18T06:30:21.469Z,102938.00
2022-12-18T06:32:53.201Z,102947.00
2022-12-18T06:35:23.262Z,102956.00
2022-12-18T06:37:50.024Z,102948.00
2022-12-18T06:40:17.364Z,102958.00
2022-12-18T06:42:44.602Z,102965.00
2022-12-18T06:45:12.344Z,102978.00
2022-12-18T06:47:39.091Z,102966.00
2022-12-18T06:50:06.591Z,102976.00
2022-12-18T06:52:34.504Z,102978.00
2022-12-18T06:55:01.699Z,102978.00
2022-12-18T06:57:28.431Z,102983.00
2022-12-18T06:59:55.413Z,102995.00
2022-12-18T07:02:22.278Z,102999.00
2022-12-18T07:04:52.175Z,102997.00
2022-12-18T07:07:19.047Z,102991.00
2022-12-18T07:09:45.781Z,102982.00
2022-12-18T07:12:12.567Z,102970.00
2022-12-18T07:14:39.280Z,102975.00
2022-12-18T07:17:06.638Z,102979.00
2022-12-18T07:19:33.996Z,102987.00
2022-12-18T07:22:01.367Z,102989.00
2022-12-18T07:24:28.524Z,102980.00
2022-12-18T07:26:55.257Z,102989.00
2022-12-18T07:29:22.329Z,102994.00
2022-12-18T07:31:49.139Z,102990.00
2022-12-18T07:34:16.316Z,102986.00
2022-12-18T07:36:43.370Z,102980.00
2022-12-18T07:39:12.551Z,102993.00
2022-12-18T07:41:46.691Z,102987.00
2022-12-18T07:44:14.226Z,102991.00
2022-12-18T07:46:41.371Z,102992.00
2022-12-18T07:49:09.729Z,102993.00
2022-12-18T07:51:36.472Z,102993.00
2022-12-18T07:54:03.220Z,102998.00
2022-12-18T07:56:31.202Z,102984.00
2022-12-18T07:59:00.102Z,102978.00
2022-12-18T08:01:27.457Z,102976.00
2022-12-18T08:03:54.511Z,102994.00
2022-12-18T08:06:22.620Z,102990.00
2022-12-18T08:08:56.211Z,102991.00
2022-12-18T08:11:25.997Z,102985.00
2022-12-18T08:13:53.415Z,102998.00
2022-12-18T08:16:21.676Z,102996.00
2022-12-18T08:18:49.564Z,102997.00
2022-12-18T08:21:24.896Z,102994.00
2022-12-18T08:23:53.450Z,103001.00
2022-12-18T08:26:21.296Z,103009.00
2022-12-18T08:28:49.390Z,103004.00
2022-12-18T08:31:18.118Z,103016.00
2022-12-18T08:33:44.953Z,103014.00
2022-12-18T08:36:12.041Z,103004.00
2022-12-18T08:38:39.044Z,103015.00
2022-12-18T08:41:12.694Z,103022.00
2022-12-18T08:43:58.331Z,103020.00
2022-12-18T08:46:27.993Z,103026.00
2022-12-18T08:48:56.827Z,103022.00
2022-12-18T08:51:23.905Z,103024.00
2022-12-18T08:53:51.736Z,103019.00
2022-12-18T08:56:18.445Z,103023.00
2022-12-18T08:58:45.335Z,103038.00
2022-12-18T09:01:13.424Z,103043.00
2022-12-18T09:03:41.106Z,103037.00
2022-12-18T09:06:09.376Z,103045.00
2022-12-18T09:08:37.804Z,103041.00
2022-12-18T09:11:05.217Z,103046.00
2022-12-18T09:13:32.188Z,103042.00
2022-12-18T09:15:59.301Z,103041.00
2022-12-18T09:18:26.144Z,103050.00
2022-12-18T09:20:53.814Z,103053.00
2022-12-18T09:23:21.809Z,103058.00
2022-12-18T09:25:49.618Z,103050.00
2022-12-18T09:28:19.365Z,103049.00
2022-12-18T09:30:50.096Z,103048.00
2022-12-18T09:33:17.852Z,103050.00
2022-12-18T09:35:46.155Z,103056.00
2022-12-18T09:38:17.601Z,103062.00
2022-12-18T09:40:52.038Z,103048.00
2022-12-18T09:43:28.135Z,103047.00
2022-12-18T09:46:13.004Z,103025.00
2022-12-18T09:48:45.377Z,103026.00
2022-12-18T09:51:25.913Z,103030.00
2022-12-18T09:54:01.690Z,103025.00
2022-12-18T09:56:35.832Z,103033.00
2022-12-18T09:59:05.229Z,103029.00
2022-12-18T10:01:43.113Z,103017.00
2022-12-18T10:04:11.315Z,103001.00
2022-12-18T10:07:07.286Z,102998.00
2022-12-18T10:10:05.552Z,102984.00
2022-12-18T10:13:04.504Z,102984.00
2022-12-18T10:15:46.345Z,102980.00
2022-12-18T10:18:52.708Z,102988.00
2022-12-18T10:21:27.667Z,102982.00
2022-12-18T10:24:40.695Z,102988.00
2022-12-18T10:27:23.068Z,102983.00
2022-12-18T10:29:50.197Z,102984.00
2022-12-18T10:32:28.951Z,102981.00
2022-12-18T10:35:00.689Z,102974.00
2022-12-18T10:37:30.573Z,102971.00
2022-12-18T10:40:21.964Z,102968.00
2022-12-18T10:43:13.786Z,102973.00
2022-12-18T10:45:41.667Z,102966.00
2022-12-18T10:48:23.326Z,102959.00
2022-12-18T10:53:43.660Z,102952.00
2022-12-18T10:56:10.909Z,102961.00
2022-12-18T10:58:40.701Z,102955.00
2022-12-18T11:01:14.380Z,102944.00
2022-12-18T11:04:00.334Z,102944.00
2022-12-18T11:06:29.963Z,102938.00
2022-12-18T11:09:13.351Z,102943.00
2022-12-18T11:11:42.016Z,102946.00
2022-12-18T11:14:23.545Z,102943.00
2022-12-18T11:19:41.893Z,102943.00
2022-12-18T11:22:27.267Z,102942.00
2022-12-18T11:25:34.131Z,102934.00
2022-12-18T11:28:06.725Z,102940.00
2022-12-18T11:30:37.292Z,102940.00
2022-12-18T11:33:20.293Z,102945.00
2022-12-18T11:35:59.552Z,102949.00
2022-12-18T11:38:32.189Z,102952.00
2022-12-18T11:41:45.425Z,102943.00
2022-12-18T11:44:23.774Z,102938.00
2022-12-18T11:47:04.064Z,102934.00
2022-12-18T11:49:35.708Z,102940.00
2022-12-18T11:52:39.152Z,102949.00
2022-12-18T11:55:16.562Z,102959.00
2022-12-18T11:58:02.465Z,102966.00
2022-12-18T12:00:29.569Z,102974.00
2022-12-18T12:03:23.109Z,102966.00
2022-12-18T12:06:44.160Z,102972.00
2022-12-18T12:09:57.672Z,102974.00
2022-12-18T12:12:55.716Z,102970.00
2022-12-18T12:15:47.220Z,102975.00
2022-12-18T12:18:38.668Z,102973.00
2022-12-18T12:21:17.558Z,102966.00
2022-12-18T12:24:26.956Z,102972.00
2022-12-18T12:27:37.295Z,102970.00
2022-12-18T12:30:10.370Z,102975.00
2022-12-18T12:33:13.554Z,102986.00
2022-12-18T12:36:09.465Z,102986.00
2022-12-18T12:38:52.254Z,103002.00
2022-12-18T12:41:46.024Z,102999.00
2022-12-18T12:44:23.103Z,102988.00
2022-12-18T12:46:53.256Z,102990.00
2022-12-18T12:49:28.611Z,102993.00
2022-12-18T12:52:40.790Z,102999.00
2022-12-18T12:55:19.828Z,102981.00
2022-12-18T12:58:37.779Z,102968.00
2022-12-18T13:01:26.067Z,102955.00
2022-12-18T13:04:05.112Z,102945.00
2022-12-18T13:07:11.031Z,102946.00
2022-12-18T13:10:27.257Z,102934.00
2022-12-18T13:13:03.952Z,102924.00
2022-12-18T13:15:41.341Z,102928.00
2022-12-18T13:18:11.094Z,102937.00
2022-12-18T13:20:58.538Z,102955.00
2022-12-18T13:23:40.751Z,102944.00
2022-12-18T13:26:08.959Z,102945.00
2022-12-18T13:28:47.766Z,102951.00
2022-12-18T13:31:41.843Z,102942.00
2022-12-18T13:34:28.446Z,102953.00
2022-12-18T13:37:18.867Z,102949.00
2022-12-18T13:39:46.014Z,102936.00
2022-12-18T13:42:32.670Z,102938.00
2022-12-18T13:44:59.629Z,102943.00
2022-12-18T13:47:34.968Z,102940.00
2022-12-18T13:50:20.796Z,102930.00
2022-12-18T13:52:49.636Z,102916.00
2022-12-18T13:55:20.852Z,102907.00
2022-12-18T13:57:48.338Z,102917.00
2022-12-18T14:00:31.642Z,102927.00
2022-12-18T14:03:00.489Z,102928.00
2022-12-18T14:05:37.083Z,102913.00
2022-12-18T14:08:15.952Z,102901.00
2022-12-18T14:10:48.286Z,102908.00
2022-12-18T14:13:34.921Z,102905.00
2022-12-18T14:16:05.865Z,102902.00
2022-12-18T14:18:56.908Z,102906.00
2022-12-18T14:21:31.073Z,102899.00
2022-12-18T14:24:09.687Z,102904.00
2022-12-18T14:26:36.423Z,102889.00
2022-12-18T14:29:28.811Z,102889.00
2022-12-18T14:32:19.613Z,102883.00
2022-12-18T14:34:52.478Z,102871.00
2022-12-18T14:37:26.324Z,102867.00
2022-12-18T14:40:08.649Z,102857.00
2022-12-18T14:42:38.118Z,102852.00
2022-12-18T14:45:41.583Z,102855.00
2022-12-18T14:48:41.254Z,102860.00
2022-12-18T14:51:20.096Z,102855.00
2022-12-18T14:53:55.531Z,102848.00
2022-12-18T14:56:32.744Z,102847.00
2022-12-18T14:59:06.820Z,102830.00
2022-12-18T15:01:46.733Z,102837.00
2022-12-18T15:04:36.178Z,102857.00
2022-12-18T15:07:11.780Z,102856.00
2022-12-18T15:09:41.260Z,102871.00
2022-12-18T15:12:41.839Z,102873.00
2022-12-18T15:15:40.554Z,102879.00
2022-12-18T15:18:11.308Z,102887.00
2022-12-18T15:20:50.463Z,102882.00
2022-12-18T15:23:25.521Z,102879.00
2022-12-18T15:26:11.494Z,102880.00
2022-12-18T15:28:46.667Z,102874.00
2022-12-18T15:31:13.445Z,102877.00
2022-12-18T15:34:06.548Z,102877.00
2022-12-18T15:36:37.260Z,102887.00
2022-12-18T15:39:06.840Z,102880.00
2022-12-18T15:41:37.144Z,102881.00
2022-12-18T15:44:22.989Z,102887.00
2022-12-18T15:46:49.969Z,102886.00
2022-12-18T15:49:16.678Z,102878.00
2022-12-18T15:51:43.598Z,102898.00
2022-12-18T15:54:17.080Z,102901.00
2022-12-18T15:57:02.309Z,102888.00
2022-12-18T15:59:29.424Z,102885.00
2022-12-18T16:01:57.595Z,102883.00
2022-12-18T16:04:25.604Z,102886.00
2022-12-18T16:09:41.927Z,102887.00
2022-12-18T16:12:19.107Z,102884.00
2022-12-18T16:14:46.393Z,102867.00
2022-12-18T16:17:15.014Z,102868.00
2022-12-18T16:19:46.319Z,102867.00
2022-12-18T16:22:28.070Z,102863.00
2022-12-18T16:24:56.717Z,102859.00
2022-12-18T16:27:25.330Z,102855.00
2022-12-18T16:29:52.212Z,102848.00
2022-12-18T16:32:22.351Z,102858.00
2022-12-18T16:34:51.097Z,102850.00
2022-12-18T16:37:17.976Z,102850.00
2022-12-18T16:39:45.553Z,102854.00
2022-12-18T16:42:19.620Z,102854.00
2022-12-18T16:44:48.316Z,102846.00
2022-12-18T16:47:15.784Z,102832.00
2022-12-18T16:49:45.201Z,102830.00
2022-12-18T16:52:13.015Z,102833.00
2022-12-18T16:54:39.748Z,102837.00
2022-12-18T16:57:06.546Z,102839.00
2022-12-18T16:59:33.370Z,102847.00
2022-12-18T17:02:01.021Z,102851.00
2022-12-18T17:04:27.888Z,102837.00
2022-12-18T17:06:54.625Z,102847.00
2022-12-18T17:09:25.061Z,102840.00
2022-12-18T17:11:53.290Z,102833.00
2022-12-18T17:14:23.199Z,102846.00
2022-12-18T17:17:07.463Z,102835.00
2022-12-18T17:19:37.027Z,102843.00
2022-12-18T17:22:04.817Z,102852.00
2022-12-18T17:24:35.201Z,102853.00
2022-12-18T17:27:03.754Z,102840.00
2022-12-18T17:29:30.830Z,102838.00
2022-12-18T17:31:58.050Z,102832.00
2022-12-18T17:34:27.972Z,102832.00
2022-12-18T17:36:55.083Z,102830.00
2022-12-18T17:39:23.060Z,102834.00
2022-12-18T17:41:50.529Z,102835.00
2022-12-18T17:44:18.515Z,102838.00
2022-12-18T17:46:46.200Z,102847.00
2022-12-18T17:49:14.066Z,102853.00
2022-12-18T17:51:42.817Z,102845.00
2022-12-18T17:54:10.631Z,102835.00
2022-12-18T17:56:40.418Z,102841.00
2022-12-18T17:59:08.010Z,102831.00
2022-12-18T18:01:38.399Z,102819.00
2022-12-18T18:04:07.896Z,102813.00
2022-12-18T18:06:34.748Z,102813.00
2022-12-18T18:09:05.429Z,102806.00
2022-12-18T18:11:52.663Z,102803.00
2022-12-18T18:14:21.307Z,102804.00
2022-12-18T18:16:51.938Z,102798.00
2022-12-18T18:19:22.962Z,102793.00
2022-12-18T18:21:52.011Z,102781.00
2022-12-18T18:24:23.457Z,102782.00
2022-12-18T18:26:50.754Z,102776.00
2022-12-18T18:29:27.075Z,102773.00
2022-12-18T18:31:55.396Z,102780.00
2022-12-18T18:34:26.650Z,102775.00
2022-12-18T18:36:53.575Z,102765.00
2022-12-18T18:39:20.944Z,102758.00
2022-12-18T18:41:48.746Z,102761.00
2022-12-18T18:44:17.931Z,102764.00
2022-12-18T18:46:45.299Z,102760.00
2022-12-18T18:49:13.746Z,102752.00
2022-12-18T18:51:42.104Z,102747.00
2022-12-18T18:54:10.010Z,102761.00
2022-12-18T18:57:04.062Z,102746.00
2022-12-18T18:59:31.435Z,102730.00
2022-12-18T19:01:59.888Z,102730.00
2022-12-18T19:04:30.916Z,102726.00
2022-12-18T19:06:57.773Z,102723.00
2022-12-18T19:09:24.970Z,102715.00
2022-12-18T19:12:11.244Z,102720.00
2022-12-18T19:14:38.146Z,102719.00
2022-12-18T19:17:06.297Z,102713.00
2022-12-18T19:19:33.471Z,102714.00
2022-12-18T19:22:00.506Z,102708.00
2022-12-18T19:24:27.625Z,102703.00
2022-12-18T19:26:56.777Z,102690.00
2022-12-18T19:29:26.751Z,102694.00
2022-12-18T19:31:53.552Z,102698.00
2022-12-18T19:34:20.392Z,102685.00
2022-12-18T19:36:47.347Z,102693.00
2022-12-18T19:39:19.254Z,102701.00
2022-12-18T19:41:46.792Z,102693.00
2022-12-18T19:44:16.963Z,102699.00
2022-12-18T19:46:48.307Z,102710.00
2022-12-18T19:49:18.187Z,102698.00
2022-12-18T19:51:45.676Z,102706.00
2022-12-18T19:54:16.629Z,102697.00
2022-12-18T19:56:45.671Z,102701.00
2022-12-18T19:59:13.200Z,102689.00
2022-12-18T20:01:40.649Z,102691.00
2022-12-18T20:04:07.966Z,102694.00
2022-12-18T20:06:54.036Z,102698.00
2022-12-18T20:09:21.480Z,102697.00
2022-12-18T20:11:48.963Z,102692.00
2022-12-18T20:14:22.598Z,102680.00
2022-12-18T20:16:51.130Z,102687.00
2022-12-18T20:19:18.582Z,102676.00
2022-12-18T20:21:45.874Z,102673.00
2022-12-18T20:24:13.228Z,102663.00
2022-12-18T20:26:40.639Z,102647.00
2022-12-18T20:29:07.625Z,102638.00
2022-12-18T20:31:34.592Z,102644.00
2022-12-18T20:34:04.856Z,102645.00
2022-12-18T20:36:35.193Z,102654.00
2022-12-18T20:39:05.275Z,102657.00
2022-12-18T20:41:37.965Z,102663.00
2022-12-18T20:44:21.613Z,102660.00
2022-12-18T20:46:58.008Z,102660.00
2022-12-18T20:49:26.934Z,102658.00
2022-12-18T20:51:57.180Z,102656.00
2022-12-18T20:54:27.189Z,102649.00
2022-12-18T20:56:54.863Z,102632.00
2022-12-18T20:59:23.272Z,102632.00
2022-12-18T21:01:52.083Z,102635.00
2022-12-18T21:04:19.355Z,102628.00
2022-12-18T21:07:00.668Z,102632.00
2022-12-18T21:09:32.852Z,102648.00
2022-12-18T21:12:29.701Z,102632.00
2022-12-18T21:15:02.460Z,102635.00
2022-12-18T21:17:29.342Z,102631.00
2022-12-18T21:19:57.702Z,102635.00
2022-12-18T21:22:24.583Z,102626.00
2022-12-18T21:24:51.516Z,102623.00
2022-12-18T21:27:19.566Z,102606.00
2022-12-18T21:29:47.212Z,102617.00
2022-12-18T21:32:14.082Z,102602.00
2022-12-18T21:34:46.202Z,102612.00
2022-12-18T21:37:16.134Z,102603.00
2022-12-18T21:39:42.831Z,102607.00
2022-12-18T21:42:30.885Z,102614.00
2022-12-18T21:44:57.751Z,102615.00
2022-12-18T21:47:24.452Z,102610.00
2022-12-18T21:49:52.875Z,102617.00
2022-12-18T21:52:27.224Z,102627.00
2022-12-18T21:55:09.071Z,102630.00
2022-12-18T21:57:39.821Z,102628.00
2022-12-18T22:00:12.500Z,102633.00
2022-12-18T22:02:46.725Z,102628.00
2022-12-18T22:05:13.700Z,102622.00
2022-12-18T22:07:40.471Z,102610.00
2022-12-18T22:10:07.903Z,102626.00
2022-12-18T22:12:43.237Z,102619.00
2022-12-18T22:15:18.652Z,102626.00
2022-12-18T22:17:50.695Z,102622.00
2022-12-18T22:20:20.131Z,102614.00
2022-12-18T22:22:48.169Z,102595.00
2022-12-18T22:25:15.025Z,102593.00
2022-12-18T22:27:42.366Z,102580.00
2022-12-18T22:30:11.270Z,102576.00
2022-12-18T22:32:37.982Z,102586.00
2022-12-18T22:35:12.692Z,102585.00
2022-12-18T22:37:42.997Z,102569.00
2022-12-18T22:40:23.902Z,102575.00
2022-12-18T22:42:52.652Z,102557.00
2022-12-18T22:45:20.056Z,102557.00
2022-12-18T22:47:46.782Z,102560.00
2022-12-18T22:50:14.831Z,102550.00
2022-12-18T22:52:42.015Z,102537.00
2022-12-18T22:55:09.222Z,102539.00
2022-12-18T22:57:36.106Z,102530.00
2022-12-18T23:00:06.345Z,102529.00
2022-12-18T23:02:33.193Z,102528.00
2022-12-18T23:05:00.037Z,102518.00
2022-12-18T23:07:26.755Z,102509.00
2022-12-18T23:10:00.752Z,102490.00
2022-12-18T23:12:28.067Z,102496.00
2022-12-18T23:14:54.879Z,102496.00
2022-12-18T23:17:21.756Z,102501.00
2022-12-18T23:19:49.401Z,102501.00
2022-12-18T23:22:17.436Z,102491.00
2022-12-18T23:24:44.355Z,102486.00
2022-12-18T23:27:11.988Z,102486.00
2022-12-18T23:29:40.147Z,102478.00
2022-12-18T23:32:07.593Z,102465.00
2022-12-18T23:34:34.408Z,102472.00
2022-12-18T23:37:01.188Z,102470.00
2022-12-18T23:39:29.752Z,102463.00
2022-12-18T23:42:01.586Z,102465.00
2022-12-18T23:44:28.735Z,102451.00
2022-12-18T23:46:55.755Z,102461.00
2022-12-18T23:49:23.031Z,102432.00
2022-12-18T23:51:50.100Z,102432.00
2022-12-18T23:54:17.072Z,102429.00
2022-12-18T23:56:47.824Z,102422.00
2022-12-18T23:59:14.541Z,102420.00
